Time;durP1;ratioP1;P1;durP2;ratioP2;P2;SDS_P1;SDS_P2;PMS_P1;PMS_P2;Temp;Humidity;BMP_temperature;BMP_pressure;BME280_temperature;BME280_humidity;BME280_pressure;Samples;Min_cycle;Max_cycle;Signal;HPM_P1;HPM_P2
2023/05/10 00:02:18;;;;;;;1.70;1.30;;;13.90;99.90;;;;;;5011026;28;20841;-68
2023/05/10 00:04:46;;;;;;;2.87;1.23;;;13.80;99.90;;;;;;5011589;28;20473;-68
2023/05/10 00:07:14;;;;;;;2.97;1.13;;;13.80;99.90;;;;;;5012138;28;20467;-68
2023/05/10 00:09:42;;;;;;;2.40;0.67;;;13.70;99.90;;;;;;5012664;28;20442;-68
2023/05/10 00:12:10;;;;;;;0.70;0.70;;;13.50;99.90;;;;;;5011720;28;20445;-68
2023/05/10 00:14:39;;;;;;;1.00;0.53;;;13.40;99.90;;;;;;5011323;28;20460;-68
2023/05/10 00:17:07;;;;;;;1.47;0.37;;;13.30;99.90;;;;;;5012109;28;20436;-69
2023/05/10 00:19:35;;;;;;;1.00;0.50;;;13.30;99.90;;;;;;5011799;28;20549;-68
2023/05/10 00:22:03;;;;;;;1.90;0.40;;;13.20;99.90;;;;;;5011526;28;21266;-69
2023/05/10 00:24:31;;;;;;;0.80;0.40;;;13.10;99.90;;;;;;5011151;28;20830;-68
2023/05/10 00:26:58;;;;;;;0.50;0.40;;;13.10;99.90;;;;;;5012061;28;20863;-68
2023/05/10 00:29:27;;;;;;;0.90;0.53;;;13.10;99.90;;;;;;5011599;28;20951;-70
2023/05/10 00:31:57;;;;;;;1.30;0.40;;;13.00;99.90;;;;;;5011756;28;20431;-69
2023/05/10 00:34:25;;;;;;;1.20;0.50;;;12.90;99.90;;;;;;5010204;28;20549;-68
2023/05/10 00:36:53;;;;;;;0.70;0.30;;;12.90;99.90;;;;;;5012062;28;20472;-70
2023/05/10 00:39:21;;;;;;;1.83;0.50;;;12.80;99.90;;;;;;5011586;28;20972;-68
2023/05/10 00:41:49;;;;;;;0.70;0.30;;;12.80;99.90;;;;;;5011241;28;20483;-68
2023/05/10 00:44:18;;;;;;;0.60;0.30;;;12.80;99.90;;;;;;5010284;28;20443;-67
2023/05/10 00:46:46;;;;;;;1.00;0.37;;;12.80;99.90;;;;;;5011048;28;20452;-68
2023/05/10 00:49:15;;;;;;;2.00;0.50;;;12.80;99.90;;;;;;5011630;28;20457;-68
2023/05/10 00:51:44;;;;;;;0.93;0.50;;;12.80;99.90;;;;;;5011523;28;20786;-69
2023/05/10 00:54:14;;;;;;;3.80;0.60;;;12.80;99.90;;;;;;5009489;28;21029;-68
2023/05/10 00:56:43;;;;;;;2.20;0.47;;;12.70;99.90;;;;;;5011511;28;20439;-68
2023/05/10 00:59:11;;;;;;;0.70;0.30;;;12.70;99.90;;;;;;5010836;28;20454;-69
2023/05/10 01:01:39;;;;;;;2.47;0.60;;;12.70;99.90;;;;;;5011110;28;20934;-68
2023/05/10 01:04:08;;;;;;;1.73;0.40;;;12.70;99.90;;;;;;5009960;28;20445;-69
2023/05/10 01:06:37;;;;;;;0.50;0.30;;;12.70;99.90;;;;;;5011659;28;20427;-69
2023/05/10 01:12:52;;;;;;;0.60;0.43;;;12.60;99.90;;;;;;5009356;28;21135;-68
2023/05/10 01:15:22;;;;;;;0.60;0.50;;;12.60;99.90;;;;;;5011244;28;20457;-69
2023/05/10 01:17:50;;;;;;;0.83;0.70;;;12.60;99.90;;;;;;5011222;28;20861;-68
2023/05/10 01:20:18;;;;;;;1.00;0.70;;;12.60;99.90;;;;;;5011051;28;20859;-68
2023/05/10 01:23:22;;;;;;;0.67;0.60;;;12.60;99.90;;;;;;5009884;28;20562;-68
2023/05/10 01:26:38;;;;;;;1.03;0.70;;;12.60;99.90;;;;;;5005342;28;20463;-68
2023/05/10 01:29:26;;;;;;;0.60;0.57;;;12.50;99.90;;;;;;4968958;28;20455;-68
2023/05/10 01:32:22;;;;;;;2.90;0.70;;;12.50;99.90;;;;;;5007116;28;20451;-68
2023/05/10 01:34:57;;;;;;;1.57;0.67;;;12.50;99.90;;;;;;5010053;28;20468;-69
2023/05/10 01:37:32;;;;;;;0.70;0.70;;;12.60;99.90;;;;;;5010581;28;20951;-69
2023/05/10 01:40:07;;;;;;;0.80;0.80;;;12.60;99.90;;;;;;5010507;28;20853;-68
2023/05/10 01:42:40;;;;;;;1.27;0.90;;;12.60;99.90;;;;;;5009608;28;20490;-69
2023/05/10 01:45:15;;;;;;;2.43;1.23;;;12.60;99.90;;;;;;5010198;28;20478;-69
2023/05/10 01:47:47;;;;;;;1.60;0.90;;;12.60;99.90;;;;;;5010833;28;20443;-69
2023/05/10 01:50:20;;;;;;;1.37;1.27;;;12.60;99.90;;;;;;5010355;28;21034;-69
2023/05/10 01:52:52;;;;;;;1.10;1.00;;;12.60;99.90;;;;;;5009332;28;20823;-69
2023/05/10 01:55:23;;;;;;;1.10;1.00;;;12.50;99.90;;;;;;5010337;28;20463;-69
2023/05/10 01:57:59;;;;;;;1.60;1.00;;;12.60;99.90;;;;;;5010504;28;20451;-69
2023/05/10 02:00:29;;;;;;;1.40;1.30;;;12.50;99.90;;;;;;5010551;28;20445;-69
2023/05/10 02:03:00;;;;;;;1.53;1.30;;;12.50;99.90;;;;;;5007799;28;20473;-69
2023/05/10 02:05:31;;;;;;;3.00;1.23;;;12.50;99.90;;;;;;5010173;28;20842;-68
2023/05/10 02:08:00;;;;;;;1.30;1.00;;;12.50;99.90;;;;;;5010083;28;20811;-69
2023/05/10 02:10:29;;;;;;;1.17;1.07;;;12.40;99.90;;;;;;5010441;28;20936;-68
2023/05/10 02:13:00;;;;;;;1.40;1.30;;;12.40;99.90;;;;;;5008783;28;20443;-69
2023/05/10 02:15:29;;;;;;;1.20;1.00;;;12.40;99.90;;;;;;5010066;28;20466;-69
2023/05/10 02:18:00;;;;;;;1.20;0.93;;;12.40;99.90;;;;;;5010139;28;20449;-68
2023/05/10 02:20:29;;;;;;;1.10;1.00;;;12.40;99.90;;;;;;5009873;28;20441;-69
2023/05/10 02:22:58;;;;;;;2.33;1.13;;;12.40;99.90;;;;;;5008992;28;20946;-68
2023/05/10 02:25:27;;;;;;;2.87;0.90;;;12.40;99.90;;;;;;5012628;28;20471;-69
2023/05/10 02:27:57;;;;;;;4.10;1.00;;;12.30;99.90;;;;;;5014265;28;20530;-70
2023/05/10 02:30:26;;;;;;;1.73;1.40;;;12.40;99.90;;;;;;5013624;28;21080;-70
2023/05/10 02:32:55;;;;;;;1.50;0.90;;;12.40;99.90;;;;;;5012857;28;20446;-69
2023/05/10 02:35:26;;;;;;;1.30;1.03;;;12.40;99.90;;;;;;5013890;28;20489;-69
2023/05/10 02:37:55;;;;;;;1.57;1.07;;;12.30;99.90;;;;;;5013915;28;20460;-69
2023/05/10 02:40:24;;;;;;;1.77;1.10;;;12.40;99.90;;;;;;5013974;28;20575;-69
2023/05/10 02:42:58;;;;;;;2.07;1.17;;;12.40;99.90;;;;;;5012357;28;20478;-69
2023/05/10 02:45:30;;;;;;;2.40;1.23;;;12.40;99.90;;;;;;5013623;28;20555;-69
2023/05/10 02:48:00;;;;;;;1.30;1.20;;;12.40;99.90;;;;;;5013443;28;20487;-69
2023/05/10 02:50:33;;;;;;;1.33;1.20;;;12.50;99.90;;;;;;5014176;28;20521;-69
2023/05/10 02:53:04;;;;;;;1.20;1.00;;;12.50;99.90;;;;;;5012302;28;20500;-69
2023/05/10 02:55:37;;;;;;;2.60;1.20;;;12.60;99.90;;;;;;5013237;28;20875;-70
2023/05/10 02:58:05;;;;;;;1.07;0.90;;;12.50;99.90;;;;;;5013409;28;21102;-69
2023/05/10 03:00:34;;;;;;;1.23;1.07;;;12.60;99.90;;;;;;5013343;28;20448;-69
2023/05/10 03:03:02;;;;;;;1.47;1.03;;;12.50;99.90;;;;;;5012197;28;20482;-69
2023/05/10 03:05:31;;;;;;;1.97;1.00;;;12.50;99.90;;;;;;5013083;28;20470;-70
2023/05/10 03:08:00;;;;;;;1.33;1.00;;;12.50;99.90;;;;;;5013606;28;20482;-69
2023/05/10 03:10:31;;;;;;;1.47;1.37;;;12.60;99.90;;;;;;5013202;28;20440;-70
2023/05/10 03:13:09;;;;;;;3.83;3.53;;;12.60;99.90;;;;;;5012136;28;20957;-69
2023/05/10 03:15:48;;;;;;;3.40;2.90;;;12.60;99.90;;;;;;5013025;28;21223;-70
2023/05/10 03:18:22;;;;;;;1.30;1.20;;;12.60;99.90;;;;;;5013067;28;21095;-69
2023/05/10 03:20:56;;;;;;;1.73;1.57;;;12.60;99.90;;;;;;5013030;28;20896;-69
2023/05/10 03:23:30;;;;;;;1.73;1.63;;;12.60;99.90;;;;;;5011675;28;20473;-69
2023/05/10 03:26:01;;;;;;;2.43;2.03;;;12.50;99.90;;;;;;5013303;28;20465;-69
2023/05/10 03:28:30;;;;;;;2.67;2.47;;;12.60;99.90;;;;;;5012772;28;20808;-69
2023/05/10 03:31:00;;;;;;;3.17;2.70;;;12.60;99.90;;;;;;5013075;28;20475;-69
2023/05/10 03:33:28;;;;;;;3.67;3.37;;;12.60;99.90;;;;;;5011464;28;20471;-69
2023/05/10 03:35:57;;;;;;;10.67;4.60;;;12.60;99.90;;;;;;5011733;28;20483;-69
2023/05/10 03:38:25;;;;;;;4.57;4.17;;;12.60;99.90;;;;;;5012859;28;20453;-70
2023/05/10 03:40:56;;;;;;;4.47;4.17;;;12.60;99.90;;;;;;5012375;28;20444;-69
2023/05/10 03:43:24;;;;;;;6.00;4.43;;;12.60;99.90;;;;;;5011436;28;20479;-70
2023/05/10 03:45:52;;;;;;;4.43;4.03;;;12.60;99.90;;;;;;5012115;28;21027;-70
2023/05/10 03:48:20;;;;;;;8.40;4.20;;;12.60;99.90;;;;;;5012925;28;20453;-70
2023/05/10 03:50:49;;;;;;;6.20;5.07;;;12.70;99.90;;;;;;5012297;28;20444;-69
2023/05/10 03:53:18;;;;;;;4.40;3.70;;;12.70;99.90;;;;;;5011409;28;20957;-69
2023/05/10 03:55:46;;;;;;;3.07;2.80;;;12.70;99.90;;;;;;5012106;28;20994;-69
2023/05/10 03:58:14;;;;;;;3.47;3.20;;;12.70;99.90;;;;;;5012545;28;20448;-69
2023/05/10 04:00:44;;;;;;;5.10;2.90;;;12.70;99.90;;;;;;5012307;28;20445;-69
2023/05/10 04:03:13;;;;;;;3.03;2.83;;;12.70;99.90;;;;;;5010915;28;20449;-69
2023/05/10 04:05:41;;;;;;;2.90;2.20;;;12.70;99.90;;;;;;5012617;28;20472;-70
2023/05/10 04:08:09;;;;;;;4.50;2.13;;;12.70;99.90;;;;;;5012346;28;20816;-70
2023/05/10 04:10:39;;;;;;;2.20;2.00;;;12.70;99.90;;;;;;5012893;28;20443;-69
2023/05/10 04:13:07;;;;;;;3.70;1.80;;;12.70;99.90;;;;;;5011385;28;20847;-69
2023/05/10 04:15:35;;;;;;;5.70;2.50;;;12.70;99.90;;;;;;5011920;28;20477;-69
2023/05/10 04:18:03;;;;;;;2.60;2.40;;;12.80;99.90;;;;;;5012451;28;20491;-70
2023/05/10 04:20:35;;;;;;;3.87;2.50;;;12.70;99.90;;;;;;5011984;28;20454;-69
2023/05/10 04:23:03;;;;;;;4.90;2.10;;;12.80;99.90;;;;;;5010957;28;20528;-69
2023/05/10 04:25:31;;;;;;;3.50;2.70;;;12.80;99.90;;;;;;5011389;28;20512;-70
2023/05/10 04:28:00;;;;;;;5.03;2.47;;;12.70;99.90;;;;;;5012009;28;20997;-69
2023/05/10 04:30:29;;;;;;;2.93;2.20;;;12.80;99.90;;;;;;5012049;28;20480;-69
2023/05/10 04:32:57;;;;;;;1.73;1.60;;;12.80;99.90;;;;;;5010603;28;20535;-70
2023/05/10 04:35:25;;;;;;;3.87;2.30;;;12.70;99.90;;;;;;5011795;28;20471;-70
2023/05/10 04:37:53;;;;;;;2.10;2.00;;;12.80;99.90;;;;;;5011324;28;20538;-70
2023/05/10 04:40:20;;;;;;;2.10;1.77;;;12.70;99.90;;;;;;5011602;28;20445;-69
2023/05/10 04:42:48;;;;;;;5.53;2.10;;;12.70;99.90;;;;;;5010319;28;20453;-69
2023/05/10 04:45:18;;;;;;;2.40;1.93;;;12.70;99.90;;;;;;5011789;28;20521;-69
2023/05/10 04:47:46;;;;;;;2.23;1.50;;;12.80;99.90;;;;;;5011274;28;20456;-69
2023/05/10 04:50:14;;;;;;;2.20;1.57;;;12.80;99.90;;;;;;5011428;28;20559;-69
2023/05/10 04:52:42;;;;;;;2.60;1.60;;;12.90;99.90;;;;;;5010188;28;21097;-70
2023/05/10 04:55:10;;;;;;;1.83;1.73;;;13.00;99.90;;;;;;5011605;28;20462;-69
2023/05/10 04:57:38;;;;;;;1.67;1.30;;;13.00;99.90;;;;;;5009592;28;20445;-70
2023/05/10 05:00:08;;;;;;;3.37;1.20;;;13.00;99.90;;;;;;5011137;28;20800;-71
2023/05/10 05:02:37;;;;;;;3.40;1.20;;;13.10;99.90;;;;;;5010351;28;20835;-70
2023/05/10 05:05:06;;;;;;;2.90;1.67;;;13.10;99.90;;;;;;5011480;28;20514;-70
2023/05/10 05:07:34;;;;;;;1.70;1.53;;;13.10;99.90;;;;;;5011614;28;20440;-70
2023/05/10 05:10:02;;;;;;;1.50;1.40;;;13.10;99.90;;;;;;5011676;28;20456;-70
2023/05/10 05:12:30;;;;;;;1.60;1.40;;;13.20;99.90;;;;;;5010199;28;20449;-71
2023/05/10 05:14:58;;;;;;;1.60;1.50;;;13.20;99.90;;;;;;5011274;28;20833;-70
2023/05/10 05:17:26;;;;;;;1.40;1.30;;;13.30;99.90;;;;;;5011423;28;20825;-70
2023/05/10 05:19:56;;;;;;;1.70;1.60;;;13.30;99.90;;;;;;5011780;28;20453;-70
2023/05/10 05:22:27;;;;;;;2.20;1.43;;;13.50;99.90;;;;;;5010413;28;20457;-71
2023/05/10 05:24:55;;;;;;;1.50;1.40;;;13.60;99.90;;;;;;5009474;28;20489;-70
2023/05/10 05:27:25;;;;;;;1.87;1.23;;;13.70;99.90;;;;;;5010749;28;20445;-70
2023/05/10 05:29:54;;;;;;;1.90;1.50;;;13.90;99.90;;;;;;5010858;28;20481;-70
2023/05/10 05:32:22;;;;;;;1.80;1.20;;;14.00;99.90;;;;;;5010213;28;20456;-72
2023/05/10 05:34:50;;;;;;;1.63;1.53;;;14.10;99.90;;;;;;5010288;28;20611;-71
2023/05/10 05:37:22;;;;;;;2.60;1.60;;;14.20;99.90;;;;;;5010907;28;20450;-70
2023/05/10 05:39:50;;;;;;;1.60;1.10;;;14.30;99.90;;;;;;5010868;28;20508;-70
2023/05/10 05:42:18;;;;;;;3.40;1.60;;;14.50;99.90;;;;;;5010567;28;20516;-69
2023/05/10 05:44:46;;;;;;;3.63;1.37;;;14.60;99.90;;;;;;5010173;28;20959;-71
2023/05/10 05:47:14;;;;;;;3.33;1.37;;;14.60;99.90;;;;;;5011068;28;20439;-71
2023/05/10 05:49:42;;;;;;;3.60;1.40;;;14.70;99.90;;;;;;5010752;28;20446;-71
2023/05/10 05:52:10;;;;;;;4.47;1.50;;;14.80;99.90;;;;;;5009885;28;20499;-69
2023/05/10 05:54:39;;;;;;;3.33;2.07;;;14.80;99.90;;;;;;5008314;28;20502;-68
2023/05/10 05:57:07;;;;;;;1.77;1.63;;;14.90;99.90;;;;;;5010240;28;20468;-70
2023/05/10 05:59:35;;;;;;;4.07;1.60;;;15.10;99.90;;;;;;5009813;28;20872;-69
2023/05/10 06:02:03;;;;;;;2.13;1.40;;;15.20;99.90;;;;;;5010158;28;20468;-70
2023/05/10 06:04:31;;;;;;;1.30;1.20;;;15.10;99.90;;;;;;5010183;28;20549;-72
2023/05/10 06:06:59;;;;;;;4.93;1.83;;;15.20;99.90;;;;;;5010254;28;20441;-71
2023/05/10 06:09:27;;;;;;;4.27;1.57;;;15.10;99.90;;;;;;5010411;28;20454;-72
2023/05/10 06:11:57;;;;;;;1.87;1.50;;;15.00;99.90;;;;;;5010584;28;20442;-71
2023/05/10 06:14:25;;;;;;;3.20;1.60;;;14.90;99.90;;;;;;5009613;28;20456;-70
2023/05/10 06:16:52;;;;;;;2.50;1.87;;;15.00;99.90;;;;;;5010220;28;21279;-71
2023/05/10 06:19:20;;;;;;;2.80;1.60;;;15.10;99.90;;;;;;5010467;28;20500;-71
2023/05/10 06:21:48;;;;;;;1.33;1.23;;;15.00;99.90;;;;;;5010560;28;20448;-71
2023/05/10 06:24:19;;;;;;;3.00;1.90;;;15.10;99.90;;;;;;5009225;28;20450;-69
2023/05/10 06:26:47;;;;;;;2.53;2.10;;;15.10;99.90;;;;;;5010462;28;20500;-70
2023/05/10 06:29:16;;;;;;;2.70;2.10;;;15.00;99.90;;;;;;5010325;28;20450;-71
2023/05/10 06:31:44;;;;;;;2.63;2.20;;;15.00;99.90;;;;;;5010511;28;20447;-71
2023/05/10 06:34:12;;;;;;;3.33;1.90;;;14.70;99.90;;;;;;5008770;28;20487;-71
2023/05/10 06:36:39;;;;;;;4.37;2.63;;;14.60;99.90;;;;;;5010597;28;20443;-71
2023/05/10 06:39:07;;;;;;;1.97;1.77;;;14.60;99.90;;;;;;5010245;28;20449;-72
2023/05/10 06:41:36;;;;;;;2.23;1.80;;;14.70;99.90;;;;;;5010389;28;20519;-71
2023/05/10 06:44:04;;;;;;;1.83;1.73;;;14.90;99.90;;;;;;5009108;28;20446;-71
2023/05/10 06:46:34;;;;;;;2.20;1.83;;;15.00;99.90;;;;;;5009821;28;20496;-71
2023/05/10 06:49:02;;;;;;;1.70;1.60;;;15.20;99.90;;;;;;5010574;28;20536;-71
2023/05/10 06:51:30;;;;;;;2.00;1.80;;;15.30;99.90;;;;;;5010365;28;20452;-70
2023/05/10 06:53:58;;;;;;;2.20;1.80;;;15.50;99.90;;;;;;5009275;28;20577;-71
2023/05/10 06:56:26;;;;;;;2.63;1.10;;;15.60;99.90;;;;;;5010091;28;20473;-71
2023/05/10 06:58:54;;;;;;;1.93;1.83;;;15.90;99.90;;;;;;5010186;28;20471;-71
2023/05/10 07:01:22;;;;;;;3.30;1.50;;;16.00;99.90;;;;;;5010445;28;20535;-71
2023/05/10 07:03:51;;;;;;;2.03;1.30;;;16.10;99.80;;;;;;5010048;28;20503;-71
2023/05/10 07:06:19;;;;;;;3.47;1.23;;;16.10;98.10;;;;;;5012156;28;20491;-71
2023/05/10 07:09:00;;;;;;;2.33;1.60;;;16.20;99.90;;;;;;5013342;28;21051;-71
2023/05/10 07:11:28;;;;;;;5.00;1.50;;;16.30;99.90;;;;;;5016150;28;20446;-72
2023/05/10 07:13:56;;;;;;;1.33;1.13;;;16.20;99.40;;;;;;5015732;28;20447;-71
2023/05/10 07:16:24;;;;;;;1.80;1.30;;;16.10;99.00;;;;;;5016272;28;20606;-71
2023/05/10 07:18:53;;;;;;;3.83;1.40;;;16.10;99.90;;;;;;5017288;28;20444;-71
2023/05/10 07:21:23;;;;;;;2.80;1.40;;;16.10;97.80;;;;;;5017915;28;20808;-71
2023/05/10 07:23:51;;;;;;;1.60;1.30;;;16.00;98.10;;;;;;5015094;28;20488;-70
2023/05/10 07:26:20;;;;;;;3.33;1.53;;;16.10;97.90;;;;;;5017296;28;21056;-71
2023/05/10 07:28:48;;;;;;;4.40;2.00;;;16.20;98.30;;;;;;5016808;28;20449;-71
2023/05/10 07:31:16;;;;;;;1.93;1.40;;;16.20;99.70;;;;;;5015809;28;20459;-71
2023/05/10 07:33:44;;;;;;;1.47;1.20;;;16.40;97.10;;;;;;5015619;28;20960;-71
2023/05/10 07:36:14;;;;;;;3.43;1.23;;;16.50;98.00;;;;;;5016346;28;20510;-70
2023/05/10 07:38:42;;;;;;;1.87;1.10;;;16.20;94.20;;;;;;5014690;28;20445;-70
2023/05/10 07:41:10;;;;;;;3.67;1.20;;;16.20;96.80;;;;;;5014915;28;20441;-70
2023/05/10 07:43:38;;;;;;;1.17;1.07;;;16.10;93.40;;;;;;5011689;28;20463;-70
2023/05/10 07:46:06;;;;;;;1.77;1.20;;;16.00;96.40;;;;;;5012695;28;20481;-70
2023/05/10 07:48:34;;;;;;;3.03;1.07;;;16.20;96.70;;;;;;5012747;28;20442;-70
2023/05/10 07:51:06;;;;;;;1.33;1.23;;;16.20;93.80;;;;;;5013048;28;20940;-70
2023/05/10 07:53:35;;;;;;;1.60;0.90;;;16.10;94.30;;;;;;5011490;28;20473;-70
2023/05/10 07:56:21;;;;;;;2.40;1.07;;;16.20;94.20;;;;;;5012621;28;20479;-71
2023/05/10 07:58:49;;;;;;;2.43;1.10;;;16.20;94.90;;;;;;5012426;28;20548;-70
2023/05/10 08:01:17;;;;;;;1.20;1.00;;;16.40;92.80;;;;;;5012575;28;20486;-71
2023/05/10 08:03:45;;;;;;;1.50;1.00;;;16.60;93.60;;;;;;5011248;28;20836;-69
2023/05/10 08:06:13;;;;;;;1.20;0.97;;;16.70;93.20;;;;;;5021017;28;21206;-71
2023/05/10 08:08:43;;;;;;;0.87;0.77;;;17.00;94.10;;;;;;5030755;28;21155;-68
2023/05/10 08:11:11;;;;;;;1.00;0.90;;;16.90;91.10;;;;;;5032186;28;20454;-70
2023/05/10 08:13:39;;;;;;;1.10;0.70;;;16.70;89.30;;;;;;5031175;28;20522;-71
2023/05/10 08:16:07;;;;;;;1.70;1.00;;;16.40;90.60;;;;;;5032030;28;20465;-71
2023/05/10 08:18:35;;;;;;;1.50;1.00;;;16.20;90.70;;;;;;5031889;28;20459;-71
2023/05/10 08:21:03;;;;;;;1.27;0.90;;;16.10;90.70;;;;;;5031897;28;20839;-70
2023/05/10 08:23:31;;;;;;;1.23;0.90;;;16.10;91.30;;;;;;5030242;28;20452;-70
2023/05/10 08:26:00;;;;;;;2.53;0.80;;;16.10;91.40;;;;;;5031540;28;20492;-71
2023/05/10 08:28:28;;;;;;;2.10;0.67;;;16.10;92.20;;;;;;5031879;28;20812;-70
2023/05/10 08:30:56;;;;;;;0.70;0.70;;;15.90;90.70;;;;;;5030376;28;20452;-70
2023/05/10 08:33:24;;;;;;;1.70;0.90;;;15.80;91.80;;;;;;5010595;28;20449;-69
2023/05/10 08:35:52;;;;;;;1.00;0.90;;;15.80;92.60;;;;;;5010837;28;20478;-69
2023/05/10 08:38:20;;;;;;;0.80;0.60;;;15.90;90.40;;;;;;5017401;28;20448;-72
2023/05/10 08:40:50;;;;;;;1.07;0.97;;;16.00;90.50;;;;;;5005068;28;20664;-70
2023/05/10 08:43:19;;;;;;;0.97;0.50;;;16.00;86.90;;;;;;5012548;28;21941;-69
2023/05/10 08:45:50;;;;;;;1.27;0.73;;;16.00;88.40;;;;;;5016758;28;20535;-70
2023/05/10 08:48:18;;;;;;;0.67;0.50;;;15.90;89.30;;;;;;5016477;28;20445;-70
2023/05/10 08:50:48;;;;;;;0.70;0.40;;;15.90;88.70;;;;;;5008055;28;20438;-70
2023/05/10 08:53:18;;;;;;;1.70;0.57;;;15.70;87.20;;;;;;5011407;28;20446;-70
2023/05/10 08:55:46;;;;;;;1.47;0.57;;;15.70;89.80;;;;;;5023490;28;20473;-71
2023/05/10 08:58:14;;;;;;;0.80;0.80;;;15.90;90.10;;;;;;5010382;28;20445;-71
2023/05/10 09:00:44;;;;;;;1.10;0.80;;;16.10;86.80;;;;;;5010706;28;20942;-70
2023/05/10 09:03:12;;;;;;;0.83;0.70;;;16.20;87.50;;;;;;5010167;28;21141;-70
2023/05/10 09:05:41;;;;;;;1.00;0.83;;;16.50;85.80;;;;;;5011121;28;20498;-71
2023/05/10 09:08:10;;;;;;;0.80;0.60;;;16.80;85.80;;;;;;5010389;28;20586;-70
2023/05/10 09:10:40;;;;;;;2.70;0.80;;;17.00;83.10;;;;;;5011578;28;20442;-70
2023/05/10 09:13:09;;;;;;;0.90;0.40;;;17.10;83.60;;;;;;5010111;28;20952;-70
2023/05/10 09:15:37;;;;;;;3.37;0.70;;;17.20;80.70;;;;;;5011550;28;20827;-69
2023/05/10 09:18:07;;;;;;;2.00;0.50;;;16.90;79.70;;;;;;5011533;28;20869;-70
2023/05/10 09:20:35;;;;;;;1.73;0.40;;;17.00;81.60;;;;;;5011815;28;20442;-70
2023/05/10 09:23:03;;;;;;;3.23;0.50;;;17.10;77.50;;;;;;5009880;28;20447;-71
2023/05/10 09:25:33;;;;;;;0.60;0.40;;;17.10;80.90;;;;;;5010975;28;20467;-70
2023/05/10 09:28:01;;;;;;;2.23;0.50;;;17.30;79.70;;;;;;5011442;28;20484;-70
2023/05/10 09:30:30;;;;;;;0.60;0.50;;;17.20;77.90;;;;;;5011579;28;20481;-69
2023/05/10 09:33:00;;;;;;;0.87;0.40;;;17.10;77.30;;;;;;5010251;28;21013;-70
2023/05/10 09:35:31;;;;;;;2.10;0.80;;;17.10;80.10;;;;;;5010449;28;20503;-70
2023/05/10 09:38:02;;;;;;;0.90;0.50;;;17.20;81.50;;;;;;5011607;28;20438;-71
2023/05/10 09:40:30;;;;;;;1.60;0.50;;;17.20;81.30;;;;;;5011787;28;20985;-69
2023/05/10 09:43:00;;;;;;;1.63;0.50;;;17.60;80.70;;;;;;5010687;28;20452;-70
2023/05/10 09:45:29;;;;;;;0.67;0.50;;;17.80;76.70;;;;;;5011861;28;20461;-70
2023/05/10 09:47:58;;;;;;;1.27;0.60;;;18.20;75.70;;;;;;5011736;28;20485;-70
2023/05/10 09:50:27;;;;;;;2.47;0.60;;;18.40;76.20;;;;;;5011824;28;20460;-70
2023/05/10 09:52:58;;;;;;;0.90;0.60;;;18.40;73.50;;;;;;5010221;28;20944;-69
2023/05/10 09:55:38;;;;;;;1.57;0.70;;;18.20;71.70;;;;;;5011984;28;20465;-71
2023/05/10 09:58:10;;;;;;;1.57;0.80;;;18.10;74.20;;;;;;5012222;28;20487;-70
2023/05/10 10:00:40;;;;;;;0.60;0.40;;;17.60;75.00;;;;;;5012377;28;20478;-69
2023/05/10 10:03:13;;;;;;;1.10;0.53;;;17.50;75.90;;;;;;5011501;28;20450;-70
2023/05/10 10:05:43;;;;;;;0.70;0.60;;;17.20;78.80;;;;;;5010891;28;20496;-69
2023/05/10 10:08:13;;;;;;;2.27;0.90;;;16.90;80.10;;;;;;5010842;28;21087;-71
2023/05/10 10:10:43;;;;;;;0.70;0.63;;;16.60;81.30;;;;;;5010904;28;20447;-71
2023/05/10 10:13:12;;;;;;;1.27;0.60;;;16.30;82.90;;;;;;5009935;28;20445;-70
2023/05/10 10:15:40;;;;;;;1.80;0.93;;;16.20;82.50;;;;;;5010781;28;20983;-70
2023/05/10 10:18:13;;;;;;;1.27;0.50;;;16.10;83.80;;;;;;5011034;28;20469;-70
2023/05/10 10:20:41;;;;;;;1.90;1.80;;;16.30;84.80;;;;;;5010563;28;20511;-70
2023/05/10 10:23:09;;;;;;;2.07;0.60;;;16.60;80.80;;;;;;5009875;28;20461;-70
2023/05/10 10:25:39;;;;;;;1.70;0.70;;;16.90;82.40;;;;;;5010953;28;20474;-70
2023/05/10 10:28:21;;;;;;;1.60;0.57;;;17.20;77.80;;;;;;5010980;28;20477;-70
2023/05/10 10:30:54;;;;;;;1.10;0.60;;;17.00;77.00;;;;;;5010527;28;20501;-69
2023/05/10 10:33:40;;;;;;;2.03;0.80;;;16.80;76.70;;;;;;5010084;28;20450;-70
2023/05/10 10:36:09;;;;;;;0.80;0.53;;;16.70;79.90;;;;;;5011320;28;20706;-69
2023/05/10 10:38:39;;;;;;;0.93;0.50;;;16.80;81.60;;;;;;5011676;28;20914;-70
2023/05/10 10:41:28;;;;;;;1.30;0.60;;;17.00;81.20;;;;;;5011496;28;20447;-69
2023/05/10 10:44:27;;;;;;;1.20;0.70;;;17.20;77.80;;;;;;5010787;28;20444;-69
2023/05/10 10:47:24;;;;;;;1.90;0.70;;;17.50;78.60;;;;;;5014834;28;20482;-69
2023/05/10 10:50:03;;;;;;;2.50;0.53;;;17.80;77.20;;;;;;5014963;28;20997;-69
2023/05/10 10:52:35;;;;;;;1.13;0.60;;;17.70;73.40;;;;;;5013816;28;20670;-69
2023/05/10 10:55:06;;;;;;;0.80;0.60;;;17.10;74.80;;;;;;5015084;28;20545;-70
2023/05/10 10:57:48;;;;;;;0.60;0.47;;;17.20;75.30;;;;;;5015343;28;20975;-69
2023/05/10 11:00:28;;;;;;;1.00;0.40;;;17.30;75.40;;;;;;5015164;28;20439;-69
2023/05/10 11:02:59;;;;;;;1.30;0.50;;;17.60;74.70;;;;;;5013762;28;20962;-69
2023/05/10 11:05:44;;;;;;;1.10;0.50;;;17.70;70.30;;;;;;5014704;28;20510;-69
2023/05/10 11:08:26;;;;;;;0.83;0.60;;;17.80;70.70;;;;;;5014870;28;20834;-71
2023/05/10 11:11:06;;;;;;;3.53;0.90;;;17.70;71.30;;;;;;5014579;28;20472;-71
2023/05/10 11:13:39;;;;;;;1.30;0.60;;;17.60;69.50;;;;;;5013451;28;20434;-70
2023/05/10 11:16:18;;;;;;;1.13;0.60;;;17.40;68.70;;;;;;5014579;28;20831;-70
2023/05/10 11:18:59;;;;;;;0.83;0.57;;;17.10;69.80;;;;;;5015304;28;20444;-70
2023/05/10 11:21:27;;;;;;;2.17;0.93;;;17.40;70.80;;;;;;5014970;28;20818;-70
2023/05/10 11:23:57;;;;;;;0.80;0.60;;;17.40;70.90;;;;;;5013347;28;20454;-70
2023/05/10 11:26:25;;;;;;;1.07;0.50;;;17.40;69.80;;;;;;5014409;28;20564;-70
2023/05/10 11:29:00;;;;;;;0.73;0.60;;;17.50;69.80;;;;;;5013951;28;20485;-70
2023/05/10 11:31:29;;;;;;;2.00;0.87;;;17.50;70.10;;;;;;5013947;28;20446;-70
2023/05/10 11:33:59;;;;;;;1.47;0.70;;;17.50;69.10;;;;;;5012714;28;20449;-70
2023/05/10 11:36:28;;;;;;;1.57;0.70;;;17.60;68.30;;;;;;5029756;28;20506;-71
2023/05/10 11:38:57;;;;;;;0.90;0.70;;;17.70;71.30;;;;;;5035407;28;20476;-70
2023/05/10 11:41:27;;;;;;;3.07;0.80;;;17.90;70.00;;;;;;5035397;28;20546;-70
2023/05/10 11:43:58;;;;;;;0.87;0.43;;;17.70;65.90;;;;;;5033578;28;20524;-71
2023/05/10 11:46:28;;;;;;;1.30;0.77;;;17.30;64.60;;;;;;5034169;28;20468;-70
2023/05/10 11:49:00;;;;;;;1.53;0.80;;;17.20;66.80;;;;;;5023067;28;21046;-71
2023/05/10 11:51:28;;;;;;;0.90;0.77;;;17.10;67.50;;;;;;5013974;28;20436;-70
2023/05/10 11:53:57;;;;;;;1.83;1.00;;;17.30;69.10;;;;;;5001455;28;20454;-70
2023/05/10 11:56:26;;;;;;;2.03;1.07;;;17.50;68.00;;;;;;5008745;28;20471;-70
2023/05/10 11:58:57;;;;;;;3.30;0.90;;;17.50;67.90;;;;;;5012122;28;20471;-71
2023/05/10 12:01:27;;;;;;;1.23;1.00;;;17.40;66.50;;;;;;5008374;28;20845;-70
2023/05/10 12:03:58;;;;;;;1.43;1.23;;;17.30;65.60;;;;;;5002610;28;20878;-70
2023/05/10 12:06:28;;;;;;;1.20;1.10;;;17.20;67.80;;;;;;4998356;28;20818;-71
2023/05/10 12:08:56;;;;;;;3.03;1.20;;;17.30;66.90;;;;;;5003651;28;20507;-73
2023/05/10 12:11:26;;;;;;;3.07;1.10;;;17.30;68.10;;;;;;4997645;28;20759;-71
2023/05/10 12:13:55;;;;;;;1.93;0.90;;;17.20;67.70;;;;;;4998756;28;20451;-72
2023/05/10 12:16:26;;;;;;;2.53;0.97;;;16.90;68.10;;;;;;5005925;28;20986;-71
2023/05/10 12:18:58;;;;;;;1.33;1.10;;;16.90;68.90;;;;;;5001767;28;20447;-71
2023/05/10 12:21:28;;;;;;;1.70;1.00;;;16.80;67.60;;;;;;5004335;28;20445;-71
2023/05/10 12:24:01;;;;;;;2.90;1.40;;;16.70;68.40;;;;;;5010716;28;21080;-69
2023/05/10 12:26:29;;;;;;;1.33;1.10;;;16.60;70.00;;;;;;5011788;28;20987;-68
2023/05/10 12:29:13;;;;;;;2.47;1.30;;;16.70;71.40;;;;;;5011810;28;20523;-69
2023/05/10 12:31:53;;;;;;;3.10;1.03;;;16.60;72.70;;;;;;5011880;28;21031;-69
2023/05/10 12:34:26;;;;;;;8.03;1.10;;;16.60;66.70;;;;;;5010325;28;21024;-70
2023/05/10 12:36:54;;;;;;;3.00;1.13;;;16.60;66.40;;;;;;5011346;28;20483;-71
2023/05/10 12:39:22;;;;;;;2.40;0.80;;;16.60;68.30;;;;;;4997892;28;20439;-71
2023/05/10 12:41:50;;;;;;;1.47;0.73;;;16.70;66.10;;;;;;5001977;28;20448;-70
2023/05/10 12:44:19;;;;;;;2.00;0.80;;;16.70;64.60;;;;;;4999177;28;20444;-71
2023/05/10 12:46:47;;;;;;;4.50;0.90;;;17.00;64.60;;;;;;5001231;28;20523;-71
2023/05/10 12:49:18;;;;;;;2.47;1.00;;;17.20;63.40;;;;;;5005297;28;20476;-71
2023/05/10 12:51:46;;;;;;;1.23;0.80;;;17.50;62.00;;;;;;5002953;28;20455;-71
2023/05/10 12:54:14;;;;;;;1.90;1.00;;;17.40;60.00;;;;;;4998756;28;20970;-71
2023/05/10 12:56:42;;;;;;;2.90;1.10;;;17.50;64.10;;;;;;5005765;28;20488;-71
2023/05/10 12:59:10;;;;;;;1.53;0.87;;;17.50;63.20;;;;;;5002189;28;20437;-70
2023/05/10 13:01:38;;;;;;;5.23;1.17;;;17.40;60.80;;;;;;5000833;28;20882;-71
2023/05/10 13:04:06;;;;;;;2.30;0.90;;;17.30;64.30;;;;;;4998642;28;20818;-70
2023/05/10 13:06:36;;;;;;;1.33;0.80;;;17.40;65.10;;;;;;5001813;28;20444;-70
2023/05/10 13:09:04;;;;;;;3.63;0.80;;;17.40;63.70;;;;;;5001429;28;20474;-69